Extreme high temperature From: 16-07-2018 05:00 Until: 19:00 warning for: Extreme high temperature Level: Yellow info button
suomi:
Hellevaroitus: Lähivuorokauden aikana on odotettavissa tukalaa hellettä.

svenska:
Varning för värmebölja: Under det närmaste dygnet är den svåra hettan att vänta.

english:
Heat wave warning: Warm weather is expected during the coming 24 hours. 


Thunder radar more information blitzortung!


Löydät sääaseman tiedot myös:

European Weather Network

Finland Weather Exchange

Weather Underground

AWEKAS



Weather Underground säähistoriasivu

Päivittäin yhteenveto Maaliskuu 31, 2017 Yksiköt:  Englantilaiset    Metriset   Molemmat
« Edellinen Päivä
Seuraava Päivä »
Päivittäin Viikoittain Kuukausittain Vuosittain Mukautettu
  Korkea: Matala: Keskiarvo:
Lämpötila: TemperatureC °F -0.7 °F 0.7 °F
Kastepiste: DewpointC °F -3.2 °F -0.5 °F
Kosteus: Humidity % 78 % 91 %
Tuulen nopeus: WindSpeedKMH mph 0.0 mph 0.5 mph
Tuulenpuuska: WindSpeedGustKMH mph - -
Tuuli:- - SSW
Ilmanpaine: PressurehPa in 1011.1 in -
Sade: 0.0 in    
Historical Graphs
 
 
Taulukkotiedot Maaliskuu 31, 2017
Aika Lämpötila Kastepiste Ilmanpaine Tuuli Tuulen nopeus Tuulenpuuska Kosteus Sademäärä (tunneittain)
TemperatureC °F DewpointC °F PressurehPa in Calm     Humidity % HourlyPrecipMM in
00:00 0.2 °F -3.2 °F 1013.4 in SSW 4.8 mph 12.9 mph 78 % 0.0 in
00:15 0.2 °F -3.2 °F 1013.4 in SSW 1.6 mph 8.0 mph 78 % 0.0 in
00:30 0.3 °F -2.9 °F 1013.1 in South 3.2 mph 6.4 mph 79 % 0.0 in
00:45 0.3 °F -2.9 °F 1013.1 in South 3.2 mph 12.9 mph 79 % 0.0 in
01:00 0.3 °F -2.8 °F 1013.1 in South 1.6 mph 8.0 mph 80 % 0.0 in
01:15 0.2 °F -2.5 °F 1012.8 in South 1.6 mph 8.0 mph 82 % 0.0 in
01:30 0.1 °F -2.5 °F 1012.8 in South 1.6 mph 4.8 mph 83 % 0.0 in
01:45 -0.1 °F -2.1 °F 1012.8 in South 1.6 mph 8.0 mph 86 % 0.0 in
02:00 -0.3 °F -2.0 °F 1012.4 in Calm   6.4 mph 88 % 0.0 in
02:15 -0.4 °F -1.8 °F 1012.4 in Calm   3.2 mph 90 % 0.0 in
02:30 -0.6 °F -1.8 °F 1012.4 in Calm   3.2 mph 91 % 0.0 in
02:45 -0.6 °F -1.7 °F 1012.1 in Calm   3.2 mph 92 % 0.0 in
03:00 -0.7 °F -1.8 °F 1012.1 in Calm   1.6 mph 92 % 0.0 in
03:15 -0.7 °F -1.7 °F 1012.1 in Calm   4.8 mph 93 % 0.0 in
03:30 -0.7 °F -1.7 °F 1011.7 in Calm   3.2 mph 93 % 0.0 in
03:45 -0.6 °F -1.6 °F 1011.7 in Calm   1.6 mph 93 % 0.0 in
04:00 -0.6 °F -1.5 °F 1011.7 in Calm   3.2 mph 94 % 0.0 in
04:15 -0.7 °F -1.5 °F 1011.7 in Calm   1.6 mph 94 % 0.0 in
04:30 -0.6 °F -1.5 °F 1011.7 in Calm   1.6 mph 94 % 0.0 in
04:45 -0.6 °F -1.4 °F 1011.4 in Calm     94 % 0.0 in
05:00 -0.6 °F -1.4 °F 1011.4 in Calm   3.2 mph 94 % 0.0 in
05:15 -0.5 °F -1.3 °F 1011.4 in Calm   1.6 mph 94 % 0.0 in
05:30 -0.5 °F -1.3 °F 1011.4 in Calm   1.6 mph 94 % 0.0 in
05:45 -0.5 °F -1.3 °F 1011.4 in Calm     94 % 0.0 in
06:00 -0.5 °F -1.2 °F 1011.1 in Calm   1.6 mph 95 % 0.0 in
06:15 -0.5 °F -1.2 °F 1011.1 in Calm   4.8 mph 95 % 0.0 in
06:30 -0.5 °F -1.2 °F 1011.1 in Calm   3.2 mph 95 % 0.0 in
06:45 -0.5 °F -1.2 °F 1011.1 in Calm   4.8 mph 95 % 0.0 in
07:00 -0.4 °F -1.1 °F 1011.1 in Calm   4.8 mph 95 % 0.0 in
07:15 -0.4 °F -1.1 °F 1011.4 in Calm   4.8 mph 95 % 0.0 in
07:30 -0.4 °F -1.1 °F 1011.4 in Calm   4.8 mph 95 % 0.0 in
07:45 -0.4 °F -1.1 °F 1011.4 in Calm   4.8 mph 95 % 0.0 in
08:00 -0.4 °F -1.1 °F 1011.7 in Calm     95 % 0.0 in
08:15 -0.3 °F -1.0 °F 1012.1 in Calm   1.6 mph 95 % 0.0 in
08:30 -0.3 °F -1.0 °F 1012.1 in Calm   4.8 mph 95 % 0.0 in
08:45 -0.3 °F -1.0 °F 1012.4 in Calm   1.6 mph 95 % 0.0 in
09:00 -0.3 °F -1.0 °F 1012.4 in SSW 1.6 mph 4.8 mph 95 % 0.0 in
09:15 -0.2 °F -1.1 °F 1012.4 in SSW 1.6 mph 6.4 mph 94 % 0.0 in
09:30 -0.1 °F -1.0 °F 1012.8 in Calm   1.6 mph 94 % 0.0 in
09:45 0.1 °F -0.6 °F 1012.8 in Calm     95 % 0.0 in
10:00 0.1 °F -0.7 °F 1012.8 in Calm   6.4 mph 94 % 0.0 in
10:15 0.2 °F -0.6 °F 1013.1 in Calm   4.8 mph 94 % 0.0 in
10:30 0.3 °F -0.6 °F 1013.1 in Calm   6.4 mph 94 % 0.0 in
10:45 0.4 °F -0.4 °F 1013.1 in Calm   4.8 mph 94 % 0.0 in
11:00 0.5 °F -0.4 °F 1013.4 in SSW 1.6 mph 8.0 mph 94 % 0.0 in
11:15 0.7 °F -0.3 °F 1013.8 in Calm   1.6 mph 93 % 0.0 in
11:30 0.6 °F -0.4 °F 1013.8 in SSW 3.2 mph 9.7 mph 93 % 0.0 in
11:45 0.8 °F -0.2 °F 1013.8 in SW 1.6 mph 4.8 mph 93 % 0.0 in
12:00 0.8 °F -0.2 °F 1014.1 in SW 1.6 mph 4.8 mph 93 % 0.0 in
12:15 1.0 °F 0.0 °F 1014.1 in SW 1.6 mph 8.0 mph 93 % 0.0 in
12:30 1.1 °F -0.1 °F 1014.1 in SSW 1.6 mph 6.4 mph 92 % 0.0 in
12:45 1.2 °F 0.0 °F 1014.4 in SSW 1.6 mph 6.4 mph 92 % 0.0 in
13:00 1.3 °F 0.1 °F 1014.4 in Calm   4.8 mph 92 % 0.0 in
13:15 1.3 °F 0.2 °F 1014.8 in SSW 1.6 mph 6.4 mph 92 % 0.0 in
13:30 1.5 °F 0.3 °F 1014.8 in Calm   1.6 mph 92 % 0.0 in
13:45 1.6 °F 0.5 °F 1014.8 in Calm   4.8 mph 92 % 0.0 in
14:00 1.7 °F 0.4 °F 1015.1 in SSW 1.6 mph 8.0 mph 91 % 0.0 in
14:15 1.7 °F 0.4 °F 1015.1 in SSW 1.6 mph 8.0 mph 91 % 0.0 in
14:30 1.8 °F 0.4 °F 1015.1 in SW 1.6 mph 4.8 mph 90 % 0.0 in
14:45 2.1 °F 0.6 °F 1015.1 in Calm     90 % 0.0 in
15:00 2.2 °F 0.7 °F 1015.5 in South 1.6 mph 4.8 mph 90 % 0.0 in
15:15 2.3 °F 0.7 °F 1015.5 in Calm   3.2 mph 89 % 0.0 in
15:30 2.2 °F 0.5 °F 1015.5 in South 1.6 mph 6.4 mph 89 % 0.0 in
15:45 2.2 °F 0.4 °F 1015.5 in South 1.6 mph 4.8 mph 88 % 0.0 in
16:00 2.3 °F 0.5 °F 1015.5 in Calm   1.6 mph 88 % 0.0 in
16:15 2.4 °F 0.6 °F 1015.5 in Calm   4.8 mph 88 % 0.0 in
16:30 2.6 °F 0.8 °F 1015.5 in Calm     88 % 0.0 in
16:45 2.7 °F 1.1 °F 1015.5 in Calm     89 % 0.0 in
17:00 2.7 °F 0.9 °F 1015.5 in Calm   1.6 mph 88 % 0.0 in
17:15 2.6 °F 0.8 °F 1015.5 in Calm   4.8 mph 88 % 0.0 in
17:30 2.5 °F 0.7 °F 1015.5 in Calm   4.8 mph 88 % 0.0 in
17:45 2.3 °F 0.7 °F 1015.5 in Calm   4.8 mph 89 % 0.0 in
18:00 2.1 °F 0.6 °F 1015.5 in SW 1.6 mph 4.8 mph 90 % 0.0 in
18:15 2.1 °F 0.6 °F 1015.5 in Calm     90 % 0.0 in
18:30 2.1 °F 0.6 °F 1015.5 in Calm     90 % 0.0 in
18:45 2.1 °F 0.7 °F 1015.5 in Calm     91 % 0.0 in
19:00 2.2 °F 0.7 °F 1015.5 in Calm     90 % 0.0 in
19:15 2.1 °F 0.8 °F 1015.5 in Calm     91 % 0.0 in
19:30 2.1 °F 0.7 °F 1015.5 in Calm     91 % 0.0 in
19:45 1.9 °F 0.6 °F 1015.5 in Calm     91 % 0.0 in
20:00 1.7 °F 0.6 °F 1015.5 in Calm     92 % 0.0 in
20:15 1.6 °F 0.5 °F 1015.5 in Calm     92 % 0.0 in
20:30 1.5 °F 0.3 °F 1015.5 in Calm     92 % 0.0 in
20:45 1.4 °F 0.2 °F 1015.5 in Calm     92 % 0.0 in
21:00 1.2 °F 0.2 °F 1015.5 in Calm     93 % 0.0 in
21:15 1.1 °F 0.1 °F 1015.5 in Calm     93 % 0.0 in
21:30 0.9 °F -0.1 °F 1015.5 in Calm     93 % 0.0 in
21:45 0.9 °F 0.0 °F 1015.5 in Calm     94 % 0.0 in
22:00 0.8 °F 0.0 °F 1015.5 in Calm     94 % 0.0 in
22:15 0.9 °F 0.0 °F 1015.5 in Calm   3.2 mph 94 % 0.0 in
22:30 0.9 °F 0.1 °F 1015.5 in Calm     94 % 0.0 in
22:45 1.0 °F 0.1 °F 1015.5 in Calm   6.4 mph 94 % 0.0 in
23:00 1.0 °F 0.1 °F 1015.5 in Calm     94 % 0.0 in
23:15 0.9 °F 0.1 °F 1015.5 in Calm   4.8 mph 94 % 0.0 in
23:30 0.9 °F 0.1 °F 1015.5 in Calm     94 % 0.0 in
23:45 0.8 °F 0.0 °F 1015.5 in Calm     94 % 0.0 in
Esan sääasema
Terveisin Weather Underground - 2.75 mb

Alkuperäinen skripti  Jim McMurry - jmcmurry@mwt.net Sovitettu myös templatelle  Wim van der Kuil - Leuven-Template.eu

Laitteet joita käytämme:

Sääasema
Davis VP2

Sääasemaohjelma
Cumulus

Sääaseman tietokone
Asus EeePC

Palveluntarjoaja
Suncomet

Davis VP2

Cumulus

Asus EeePC

Suncomet